sensor_id;sensor_type;location;lat;lon;timestamp;P1;durP1;ratioP1;P2;durP2;ratioP2
22632;SDS011;11483;55.828;37.488;2023-07-08T00:00:23;18.95;;;10.23;;
22632;SDS011;11483;55.828;37.488;2023-07-08T00:02:50;23.85;;;11.25;;
22632;SDS011;11483;55.828;37.488;2023-07-08T09:15:28;11.90;;;6.10;;
22632;SDS011;11483;55.828;37.488;2023-07-08T09:17:54;8.32;;;6.05;;
22632;SDS011;11483;55.828;37.488;2023-07-08T09:20:26;10.50;;;6.82;;
22632;SDS011;11483;55.828;37.488;2023-07-08T09:22:59;11.55;;;6.82;;
22632;SDS011;11483;55.828;37.488;2023-07-08T09:25:51;9.90;;;6.10;;
22632;SDS011;11483;55.828;37.488;2023-07-08T09:28:19;11.30;;;6.18;;
22632;SDS011;11483;55.828;37.488;2023-07-08T09:30:48;6.50;;;5.03;;
22632;SDS011;11483;55.828;37.488;2023-07-08T09:33:18;7.97;;;4.43;;
22632;SDS011;11483;55.828;37.488;2023-07-08T09:35:45;8.68;;;4.53;;
22632;SDS011;11483;55.828;37.488;2023-07-08T09:38:17;6.00;;;4.40;;
22632;SDS011;11483;55.828;37.488;2023-07-08T09:40:47;4.93;;;3.90;;
22632;SDS011;11483;55.828;37.488;2023-07-08T09:45:52;8.45;;;4.10;;
22632;SDS011;11483;55.828;37.488;2023-07-08T09:50:54;5.43;;;3.80;;
22632;SDS011;11483;55.828;37.488;2023-07-08T09:53:23;6.57;;;3.40;;
22632;SDS011;11483;55.828;37.488;2023-07-08T09:55:50;4.70;;;3.78;;
22632;SDS011;11483;55.828;37.488;2023-07-08T09:58:33;4.65;;;3.22;;
22632;SDS011;11483;55.828;37.488;2023-07-08T10:01:10;5.50;;;3.40;;
22632;SDS011;11483;55.828;37.488;2023-07-08T10:03:39;5.85;;;3.97;;
22632;SDS011;11483;55.828;37.488;2023-07-08T10:06:06;5.30;;;3.60;;
22632;SDS011;11483;55.828;37.488;2023-07-08T10:08:42;6.75;;;3.70;;
22632;SDS011;11483;55.828;37.488;2023-07-08T10:13:42;5.65;;;3.17;;
22632;SDS011;11483;55.828;37.488;2023-07-08T10:16:15;4.88;;;3.13;;
22632;SDS011;11483;55.828;37.488;2023-07-08T10:18:51;5.18;;;3.05;;
22632;SDS011;11483;55.828;37.488;2023-07-08T10:26:45;6.15;;;2.85;;
22632;SDS011;11483;55.828;37.488;2023-07-08T10:32:26;11.23;;;3.40;;
22632;SDS011;11483;55.828;37.488;2023-07-08T10:35:18;5.53;;;2.78;;
22632;SDS011;11483;55.828;37.488;2023-07-08T10:40:49;7.35;;;3.28;;
22632;SDS011;11483;55.828;37.488;2023-07-08T10:43:29;6.75;;;3.13;;
22632;SDS011;11483;55.828;37.488;2023-07-08T10:46:32;7.63;;;3.40;;
22632;SDS011;11483;55.828;37.488;2023-07-08T10:54:48;6.30;;;3.05;;
22632;SDS011;11483;55.828;37.488;2023-07-08T11:05:45;4.65;;;3.00;;
22632;SDS011;11483;55.828;37.488;2023-07-08T11:13:23;5.20;;;2.72;;
22632;SDS011;11483;55.828;37.488;2023-07-08T11:21:15;3.60;;;2.78;;
22632;SDS011;11483;55.828;37.488;2023-07-08T11:23:47;4.88;;;2.58;;
22632;SDS011;11483;55.828;37.488;2023-07-08T11:29:27;5.97;;;2.40;;
22632;SDS011;11483;55.828;37.488;2023-07-08T11:32:02;4.15;;;2.72;;
22632;SDS011;11483;55.828;37.488;2023-07-08T11:34:30;6.28;;;3.10;;
22632;SDS011;11483;55.828;37.488;2023-07-08T11:36:58;3.55;;;2.67;;
22632;SDS011;11483;55.828;37.488;2023-07-08T11:39:26;9.60;;;2.92;;
22632;SDS011;11483;55.828;37.488;2023-07-08T11:42:04;5.10;;;3.10;;
22632;SDS011;11483;55.828;37.488;2023-07-08T11:44:41;4.28;;;2.75;;
22632;SDS011;11483;55.828;37.488;2023-07-08T11:47:25;4.25;;;2.42;;
22632;SDS011;11483;55.828;37.488;2023-07-08T11:50:21;5.72;;;3.22;;
22632;SDS011;11483;55.828;37.488;2023-07-08T11:53:00;5.25;;;3.20;;
22632;SDS011;11483;55.828;37.488;2023-07-08T11:55:38;6.60;;;2.75;;
22632;SDS011;11483;55.828;37.488;2023-07-08T11:58:31;3.38;;;2.80;;
22632;SDS011;11483;55.828;37.488;2023-07-08T12:04:20;4.68;;;2.88;;
22632;SDS011;11483;55.828;37.488;2023-07-08T12:10:51;6.93;;;2.97;;
22632;SDS011;11483;55.828;37.488;2023-07-08T12:13:00;5.15;;;3.10;;
22632;SDS011;11483;55.828;37.488;2023-07-08T12:15:27;10.35;;;3.38;;
22632;SDS011;11483;55.828;37.488;2023-07-08T12:17:59;7.28;;;3.45;;
22632;SDS011;11483;55.828;37.488;2023-07-08T12:20:33;6.10;;;3.20;;
22632;SDS011;11483;55.828;37.488;2023-07-08T12:23:01;9.07;;;3.05;;
22632;SDS011;11483;55.828;37.488;2023-07-08T12:25:29;7.13;;;3.00;;
22632;SDS011;11483;55.828;37.488;2023-07-08T12:27:57;5.78;;;2.92;;
22632;SDS011;11483;55.828;37.488;2023-07-08T12:30:23;5.07;;;3.00;;
22632;SDS011;11483;55.828;37.488;2023-07-08T12:32:52;5.82;;;2.92;;
22632;SDS011;11483;55.828;37.488;2023-07-08T12:35:30;3.92;;;2.80;;
22632;SDS011;11483;55.828;37.488;2023-07-08T12:37:58;5.65;;;2.65;;
22632;SDS011;11483;55.828;37.488;2023-07-08T12:40:30;3.90;;;2.92;;
22632;SDS011;11483;55.828;37.488;2023-07-08T12:42:56;3.72;;;2.88;;
22632;SDS011;11483;55.828;37.488;2023-07-08T13:02:31;4.60;;;2.88;;
22632;SDS011;11483;55.828;37.488;2023-07-08T13:04:59;5.85;;;2.30;;
22632;SDS011;11483;55.828;37.488;2023-07-08T13:07:35;5.43;;;2.30;;
22632;SDS011;11483;55.828;37.488;2023-07-08T13:10:05;6.65;;;2.70;;
22632;SDS011;11483;55.828;37.488;2023-07-08T13:12:34;4.47;;;2.47;;
22632;SDS011;11483;55.828;37.488;2023-07-08T13:15:04;8.80;;;2.45;;
22632;SDS011;11483;55.828;37.488;2023-07-08T13:17:36;4.28;;;2.25;;
22632;SDS011;11483;55.828;37.488;2023-07-08T13:20:03;4.95;;;2.33;;
22632;SDS011;11483;55.828;37.488;2023-07-08T13:22:30;4.20;;;2.33;;
22632;SDS011;11483;55.828;37.488;2023-07-08T13:25:00;7.72;;;2.78;;
22632;SDS011;11483;55.828;37.488;2023-07-08T13:27:27;3.95;;;2.17;;
22632;SDS011;11483;55.828;37.488;2023-07-08T13:29:54;6.03;;;2.22;;
22632;SDS011;11483;55.828;37.488;2023-07-08T13:32:29;4.07;;;2.17;;
22632;SDS011;11483;55.828;37.488;2023-07-08T13:34:56;5.57;;;2.42;;
22632;SDS011;11483;55.828;37.488;2023-07-08T13:37:22;2.97;;;2.08;;
22632;SDS011;11483;55.828;37.488;2023-07-08T13:39:51;4.70;;;2.03;;
22632;SDS011;11483;55.828;37.488;2023-07-08T13:42:18;2.65;;;1.88;;
22632;SDS011;11483;55.828;37.488;2023-07-08T13:44:44;3.03;;;2.33;;
22632;SDS011;11483;55.828;37.488;2023-07-08T13:47:19;5.72;;;2.28;;
22632;SDS011;11483;55.828;37.488;2023-07-08T13:49:54;8.32;;;2.17;;
22632;SDS011;11483;55.828;37.488;2023-07-08T13:52:26;7.18;;;2.28;;
22632;SDS011;11483;55.828;37.488;2023-07-08T13:54:54;9.15;;;2.30;;
22632;SDS011;11483;55.828;37.488;2023-07-08T13:57:28;3.75;;;2.10;;
22632;SDS011;11483;55.828;37.488;2023-07-08T14:00:03;3.80;;;2.00;;
22632;SDS011;11483;55.828;37.488;2023-07-08T14:02:32;2.92;;;1.90;;
22632;SDS011;11483;55.828;37.488;2023-07-08T14:04:59;7.53;;;2.38;;
22632;SDS011;11483;55.828;37.488;2023-07-08T14:07:27;6.45;;;2.25;;
22632;SDS011;11483;55.828;37.488;2023-07-08T14:09:54;5.30;;;2.17;;
22632;SDS011;11483;55.828;37.488;2023-07-08T14:12:21;3.50;;;1.80;;
22632;SDS011;11483;55.828;37.488;2023-07-08T14:14:47;4.55;;;2.50;;
22632;SDS011;11483;55.828;37.488;2023-07-08T14:17:15;8.45;;;2.60;;
22632;SDS011;11483;55.828;37.488;2023-07-08T14:19:51;4.97;;;2.33;;
22632;SDS011;11483;55.828;37.488;2023-07-08T14:24:46;4.22;;;2.45;;
22632;SDS011;11483;55.828;37.488;2023-07-08T14:27:12;2.63;;;2.03;;
22632;SDS011;11483;55.828;37.488;2023-07-08T14:29:42;5.80;;;2.10;;
22632;SDS011;11483;55.828;37.488;2023-07-08T14:32:14;8.00;;;2.00;;
22632;SDS011;11483;55.828;37.488;2023-07-08T14:34:41;8.55;;;2.15;;
22632;SDS011;11483;55.828;37.488;2023-07-08T14:37:14;7.43;;;2.47;;
22632;SDS011;11483;55.828;37.488;2023-07-08T14:39:41;3.53;;;2.10;;
22632;SDS011;11483;55.828;37.488;2023-07-08T14:42:13;3.70;;;2.20;;
22632;SDS011;11483;55.828;37.488;2023-07-08T14:44:43;2.90;;;2.17;;
22632;SDS011;11483;55.828;37.488;2023-07-08T14:47:14;7.72;;;2.05;;
22632;SDS011;11483;55.828;37.488;2023-07-08T14:49:41;3.35;;;2.40;;
22632;SDS011;11483;55.828;37.488;2023-07-08T14:52:08;4.75;;;2.28;;
22632;SDS011;11483;55.828;37.488;2023-07-08T14:54:34;10.10;;;2.25;;
22632;SDS011;11483;55.828;37.488;2023-07-08T14:57:00;7.32;;;2.97;;
22632;SDS011;11483;55.828;37.488;2023-07-08T14:59:28;5.63;;;2.55;;
22632;SDS011;11483;55.828;37.488;2023-07-08T15:01:57;11.02;;;2.75;;
22632;SDS011;11483;55.828;37.488;2023-07-08T15:04:24;3.58;;;1.80;;
22632;SDS011;11483;55.828;37.488;2023-07-08T15:06:50;9.50;;;2.40;;
22632;SDS011;11483;55.828;37.488;2023-07-08T15:09:18;3.80;;;2.50;;
22632;SDS011;11483;55.828;37.488;2023-07-08T15:11:44;7.43;;;2.15;;
22632;SDS011;11483;55.828;37.488;2023-07-08T15:14:18;3.75;;;2.30;;
22632;SDS011;11483;55.828;37.488;2023-07-08T15:16:46;5.22;;;2.25;;
22632;SDS011;11483;55.828;37.488;2023-07-08T15:19:12;8.23;;;2.30;;
22632;SDS011;11483;55.828;37.488;2023-07-08T15:21:39;3.25;;;1.90;;
22632;SDS011;11483;55.828;37.488;2023-07-08T15:24:08;3.50;;;2.10;;
22632;SDS011;11483;55.828;37.488;2023-07-08T15:26:42;5.63;;;2.40;;
22632;SDS011;11483;55.828;37.488;2023-07-08T15:29:12;2.85;;;2.38;;
22632;SDS011;11483;55.828;37.488;2023-07-08T15:31:49;4.07;;;2.10;;
22632;SDS011;11483;55.828;37.488;2023-07-08T15:34:15;4.93;;;2.25;;
22632;SDS011;11483;55.828;37.488;2023-07-08T15:36:43;4.72;;;2.20;;
22632;SDS011;11483;55.828;37.488;2023-07-08T15:39:09;2.53;;;2.33;;
22632;SDS011;11483;55.828;37.488;2023-07-08T15:41:36;8.63;;;2.90;;
22632;SDS011;11483;55.828;37.488;2023-07-08T15:44:04;4.40;;;2.30;;
22632;SDS011;11483;55.828;37.488;2023-07-08T15:46:34;2.90;;;1.98;;
22632;SDS011;11483;55.828;37.488;2023-07-08T15:49:09;9.68;;;1.98;;
22632;SDS011;11483;55.828;37.488;2023-07-08T15:51:38;6.75;;;2.20;;
22632;SDS011;11483;55.828;37.488;2023-07-08T15:54:03;5.47;;;2.53;;
22632;SDS011;11483;55.828;37.488;2023-07-08T15:56:29;7.10;;;2.50;;
22632;SDS011;11483;55.828;37.488;2023-07-08T15:58:55;9.35;;;2.47;;
22632;SDS011;11483;55.828;37.488;2023-07-08T16:01:22;5.63;;;2.67;;
22632;SDS011;11483;55.828;37.488;2023-07-08T16:03:50;3.47;;;2.47;;
22632;SDS011;11483;55.828;37.488;2023-07-08T16:06:16;6.68;;;2.58;;
22632;SDS011;11483;55.828;37.488;2023-07-08T16:08:43;3.88;;;2.20;;
22632;SDS011;11483;55.828;37.488;2023-07-08T16:11:14;9.88;;;2.60;;
22632;SDS011;11483;55.828;37.488;2023-07-08T16:13:54;7.53;;;2.78;;
22632;SDS011;11483;55.828;37.488;2023-07-08T16:16:20;7.43;;;2.85;;
22632;SDS011;11483;55.828;37.488;2023-07-08T16:18:48;9.52;;;2.45;;
22632;SDS011;11483;55.828;37.488;2023-07-08T16:21:13;4.10;;;2.13;;
22632;SDS011;11483;55.828;37.488;2023-07-08T16:23:39;4.22;;;2.42;;
22632;SDS011;11483;55.828;37.488;2023-07-08T16:26:05;5.43;;;2.50;;
22632;SDS011;11483;55.828;37.488;2023-07-08T16:28:35;6.25;;;2.80;;
22632;SDS011;11483;55.828;37.488;2023-07-08T16:31:14;10.07;;;2.47;;
22632;SDS011;11483;55.828;37.488;2023-07-08T16:33:43;5.63;;;2.33;;
22632;SDS011;11483;55.828;37.488;2023-07-08T16:36:11;7.13;;;2.58;;
22632;SDS011;11483;55.828;37.488;2023-07-08T16:38:39;3.92;;;2.88;;
22632;SDS011;11483;55.828;37.488;2023-07-08T16:41:10;7.85;;;2.55;;
22632;SDS011;11483;55.828;37.488;2023-07-08T16:43:41;6.15;;;2.50;;
22632;SDS011;11483;55.828;37.488;2023-07-08T16:46:11;7.40;;;2.70;;
22632;SDS011;11483;55.828;37.488;2023-07-08T16:48:38;11.10;;;3.08;;
22632;SDS011;11483;55.828;37.488;2023-07-08T16:51:09;6.72;;;3.50;;
22632;SDS011;11483;55.828;37.488;2023-07-08T16:53:42;4.15;;;2.60;;
22632;SDS011;11483;55.828;37.488;2023-07-08T16:56:12;3.38;;;2.38;;
22632;SDS011;11483;55.828;37.488;2023-07-08T16:58:42;5.68;;;2.90;;
22632;SDS011;11483;55.828;37.488;2023-07-08T17:01:09;6.05;;;2.67;;
22632;SDS011;11483;55.828;37.488;2023-07-08T17:03:46;4.93;;;2.38;;
22632;SDS011;11483;55.828;37.488;2023-07-08T17:06:13;6.35;;;3.10;;
22632;SDS011;11483;55.828;37.488;2023-07-08T17:08:39;4.63;;;2.70;;
22632;SDS011;11483;55.828;37.488;2023-07-08T17:11:05;5.60;;;2.78;;
22632;SDS011;11483;55.828;37.488;2023-07-08T17:13:31;3.50;;;2.45;;
22632;SDS011;11483;55.828;37.488;2023-07-08T17:15:57;5.43;;;2.60;;
22632;SDS011;11483;55.828;37.488;2023-07-08T17:18:24;4.47;;;2.53;;
22632;SDS011;11483;55.828;37.488;2023-07-08T17:20:50;7.93;;;2.60;;
22632;SDS011;11483;55.828;37.488;2023-07-08T17:23:18;3.33;;;2.42;;
22632;SDS011;11483;55.828;37.488;2023-07-08T17:25:47;7.03;;;2.72;;
22632;SDS011;11483;55.828;37.488;2023-07-08T17:28:13;4.25;;;2.38;;
22632;SDS011;11483;55.828;37.488;2023-07-08T17:30:39;5.25;;;2.42;;
22632;SDS011;11483;55.828;37.488;2023-07-08T17:33:08;6.68;;;2.60;;
22632;SDS011;11483;55.828;37.488;2023-07-08T17:35:41;7.45;;;3.00;;
22632;SDS011;11483;55.828;37.488;2023-07-08T17:38:10;7.35;;;2.22;;
22632;SDS011;11483;55.828;37.488;2023-07-08T17:40:37;4.75;;;2.67;;
22632;SDS011;11483;55.828;37.488;2023-07-08T17:43:04;5.78;;;2.70;;
22632;SDS011;11483;55.828;37.488;2023-07-08T17:45:35;12.05;;;2.90;;
22632;SDS011;11483;55.828;37.488;2023-07-08T17:48:05;4.45;;;2.90;;
22632;SDS011;11483;55.828;37.488;2023-07-08T17:50:33;7.63;;;2.80;;
22632;SDS011;11483;55.828;37.488;2023-07-08T17:52:59;7.28;;;3.10;;
22632;SDS011;11483;55.828;37.488;2023-07-08T17:55:25;10.90;;;2.88;;
22632;SDS011;11483;55.828;37.488;2023-07-08T17:57:52;13.25;;;3.10;;
22632;SDS011;11483;55.828;37.488;2023-07-08T18:00:23;7.38;;;3.05;;
22632;SDS011;11483;55.828;37.488;2023-07-08T18:02:50;10.90;;;3.53;;
22632;SDS011;11483;55.828;37.488;2023-07-08T18:07:49;13.18;;;3.42;;
22632;SDS011;11483;55.828;37.488;2023-07-08T18:10:17;7.03;;;3.38;;
22632;SDS011;11483;55.828;37.488;2023-07-08T18:12:44;11.63;;;2.95;;
22632;SDS011;11483;55.828;37.488;2023-07-08T18:17:46;14.85;;;4.68;;
22632;SDS011;11483;55.828;37.488;2023-07-08T18:20:13;16.45;;;4.40;;
22632;SDS011;11483;55.828;37.488;2023-07-08T18:22:41;14.60;;;4.20;;
22632;SDS011;11483;55.828;37.488;2023-07-08T18:25:21;13.82;;;4.30;;
22632;SDS011;11483;55.828;37.488;2023-07-08T18:27:49;15.45;;;5.03;;
22632;SDS011;11483;55.828;37.488;2023-07-08T18:30:17;10.85;;;4.40;;
22632;SDS011;11483;55.828;37.488;2023-07-08T18:32:45;13.63;;;4.03;;
22632;SDS011;11483;55.828;37.488;2023-07-08T18:37:46;10.57;;;4.20;;
22632;SDS011;11483;55.828;37.488;2023-07-08T18:40:16;16.00;;;4.32;;
22632;SDS011;11483;55.828;37.488;2023-07-08T18:43:24;14.68;;;4.53;;
22632;SDS011;11483;55.828;37.488;2023-07-08T18:45:51;12.95;;;4.68;;
22632;SDS011;11483;55.828;37.488;2023-07-08T18:48:18;24.20;;;4.82;;
22632;SDS011;11483;55.828;37.488;2023-07-08T18:50:53;15.27;;;4.97;;
22632;SDS011;11483;55.828;37.488;2023-07-08T18:53:20;11.90;;;4.40;;
22632;SDS011;11483;55.828;37.488;2023-07-08T18:55:48;10.93;;;4.55;;
22632;SDS011;11483;55.828;37.488;2023-07-08T18:58:14;16.38;;;4.03;;
22632;SDS011;11483;55.828;37.488;2023-07-08T19:00:42;12.10;;;4.43;;
22632;SDS011;11483;55.828;37.488;2023-07-08T19:03:29;12.00;;;4.97;;
22632;SDS011;11483;55.828;37.488;2023-07-08T19:05:54;20.50;;;4.90;;
22632;SDS011;11483;55.828;37.488;2023-07-08T19:08:23;12.05;;;5.18;;
22632;SDS011;11483;55.828;37.488;2023-07-08T19:10:53;29.17;;;6.55;;
22632;SDS011;11483;55.828;37.488;2023-07-08T19:13:22;24.63;;;6.28;;
22632;SDS011;11483;55.828;37.488;2023-07-08T19:15:51;29.85;;;6.28;;
22632;SDS011;11483;55.828;37.488;2023-07-08T19:18:17;23.98;;;7.05;;
22632;SDS011;11483;55.828;37.488;2023-07-08T19:20:44;13.82;;;5.72;;
22632;SDS011;11483;55.828;37.488;2023-07-08T19:23:24;20.75;;;5.15;;
22632;SDS011;11483;55.828;37.488;2023-07-08T19:25:51;15.98;;;5.05;;
22632;SDS011;11483;55.828;37.488;2023-07-08T19:28:17;8.77;;;3.75;;
22632;SDS011;11483;55.828;37.488;2023-07-08T19:30:43;16.95;;;5.20;;
22632;SDS011;11483;55.828;37.488;2023-07-08T19:33:15;9.48;;;4.45;;
22632;SDS011;11483;55.828;37.488;2023-07-08T19:35:42;11.25;;;5.22;;
22632;SDS011;11483;55.828;37.488;2023-07-08T19:38:10;11.95;;;4.70;;
22632;SDS011;11483;55.828;37.488;2023-07-08T19:40:37;16.55;;;5.25;;
22632;SDS011;11483;55.828;37.488;2023-07-08T19:43:16;24.58;;;7.32;;
22632;SDS011;11483;55.828;37.488;2023-07-08T19:45:43;21.40;;;6.47;;
22632;SDS011;11483;55.828;37.488;2023-07-08T19:48:10;24.92;;;6.15;;
22632;SDS011;11483;55.828;37.488;2023-07-08T19:50:36;23.33;;;6.57;;
22632;SDS011;11483;55.828;37.488;2023-07-08T19:53:03;33.55;;;6.80;;
22632;SDS011;11483;55.828;37.488;2023-07-08T19:55:29;26.15;;;6.55;;
22632;SDS011;11483;55.828;37.488;2023-07-08T19:57:55;34.67;;;7.38;;
22632;SDS011;11483;55.828;37.488;2023-07-08T20:00:29;20.63;;;6.38;;
22632;SDS011;11483;55.828;37.488;2023-07-08T20:03:00;22.83;;;6.65;;
22632;SDS011;11483;55.828;37.488;2023-07-08T20:05:31;26.42;;;6.63;;
22632;SDS011;11483;55.828;37.488;2023-07-08T20:08:01;12.60;;;6.63;;
22632;SDS011;11483;55.828;37.488;2023-07-08T20:10:29;12.68;;;5.93;;
22632;SDS011;11483;55.828;37.488;2023-07-08T20:12:56;16.83;;;7.03;;
22632;SDS011;11483;55.828;37.488;2023-07-08T20:15:23;20.88;;;6.07;;
22632;SDS011;11483;55.828;37.488;2023-07-08T20:17:51;29.05;;;7.18;;
22632;SDS011;11483;55.828;37.488;2023-07-08T20:20:21;20.83;;;8.02;;
22632;SDS011;11483;55.828;37.488;2023-07-08T20:22:50;20.20;;;6.88;;
22632;SDS011;11483;55.828;37.488;2023-07-08T20:25:17;16.38;;;6.50;;
22632;SDS011;11483;55.828;37.488;2023-07-08T20:27:44;17.63;;;6.85;;
22632;SDS011;11483;55.828;37.488;2023-07-08T20:32:56;27.10;;;7.30;;
22632;SDS011;11483;55.828;37.488;2023-07-08T20:35:23;32.15;;;8.45;;
22632;SDS011;11483;55.828;37.488;2023-07-08T20:37:51;41.00;;;9.27;;
22632;SDS011;11483;55.828;37.488;2023-07-08T20:40:19;32.35;;;9.20;;
22632;SDS011;11483;55.828;37.488;2023-07-08T20:42:45;35.95;;;10.40;;
22632;SDS011;11483;55.828;37.488;2023-07-08T20:45:12;36.80;;;8.38;;
22632;SDS011;11483;55.828;37.488;2023-07-08T20:47:38;23.77;;;8.57;;
22632;SDS011;11483;55.828;37.488;2023-07-08T20:50:11;30.20;;;8.52;;
22632;SDS011;11483;55.828;37.488;2023-07-08T20:52:39;22.58;;;9.18;;
22632;SDS011;11483;55.828;37.488;2023-07-08T20:55:05;18.48;;;8.10;;
22632;SDS011;11483;55.828;37.488;2023-07-08T20:57:32;21.25;;;8.55;;
22632;SDS011;11483;55.828;37.488;2023-07-08T20:59:57;22.42;;;8.70;;
22632;SDS011;11483;55.828;37.488;2023-07-08T21:02:24;26.30;;;8.95;;
22632;SDS011;11483;55.828;37.488;2023-07-08T21:04:51;31.63;;;7.68;;
22632;SDS011;11483;55.828;37.488;2023-07-08T21:07:17;20.92;;;9.02;;
22632;SDS011;11483;55.828;37.488;2023-07-08T21:09:47;21.95;;;9.10;;
22632;SDS011;11483;55.828;37.488;2023-07-08T21:12:14;30.80;;;9.52;;
22632;SDS011;11483;55.828;37.488;2023-07-08T21:14:39;23.88;;;8.60;;
22632;SDS011;11483;55.828;37.488;2023-07-08T21:17:14;29.23;;;10.07;;
22632;SDS011;11483;55.828;37.488;2023-07-08T21:19:42;23.95;;;8.73;;
22632;SDS011;11483;55.828;37.488;2023-07-08T21:22:12;20.98;;;8.50;;
22632;SDS011;11483;55.828;37.488;2023-07-08T21:24:38;25.08;;;9.55;;
22632;SDS011;11483;55.828;37.488;2023-07-08T21:27:04;17.95;;;9.57;;
22632;SDS011;11483;55.828;37.488;2023-07-08T21:29:31;18.60;;;9.02;;
22632;SDS011;11483;55.828;37.488;2023-07-08T21:31:57;21.83;;;9.18;;
